Time;durP1;ratioP1;P1;durP2;ratioP2;P2;SDS_P1;SDS_P2;PMS_P1;PMS_P2;Temp;Humidity;BMP_temperature;BMP_pressure;BME280_temperature;BME280_humidity;BME280_pressure;Samples;Min_cycle;Max_cycle;Signal;HPM_P1;HPM_P2
2023/09/14 00:00:17;;;;;;;3.97;1.67;;;9.50;99.90;;;;;;5002832;28;20095;-85
2023/09/14 00:02:42;;;;;;;5.13;1.27;;;9.50;99.90;;;;;;5005060;28;20033;-81
2023/09/14 00:05:09;;;;;;;1.80;1.33;;;9.40;99.90;;;;;;5001712;28;20071;-81
2023/09/14 00:07:34;;;;;;;2.55;1.30;;;9.40;99.90;;;;;;4993845;28;20023;-81
2023/09/14 00:10:00;;;;;;;1.30;0.88;;;9.40;99.90;;;;;;4997521;28;20022;-82
2023/09/14 00:12:25;;;;;;;3.60;1.40;;;9.40;99.90;;;;;;5015580;28;20020;-81
2023/09/14 00:14:51;;;;;;;3.78;1.80;;;9.40;99.90;;;;;;4999112;28;20025;-83
2023/09/14 00:17:16;;;;;;;6.05;1.65;;;9.40;99.90;;;;;;5012086;28;20055;-82
2023/09/14 00:19:42;;;;;;;1.20;0.95;;;9.30;99.90;;;;;;5000115;28;20022;-83
2023/09/14 00:22:08;;;;;;;2.97;1.20;;;9.30;99.90;;;;;;5011307;28;20010;-81
2023/09/14 00:24:35;;;;;;;2.05;1.30;;;9.30;99.90;;;;;;5011790;28;20465;-82
2023/09/14 00:27:00;;;;;;;2.88;1.17;;;9.30;99.90;;;;;;5010445;28;20024;-81
2023/09/14 00:29:26;;;;;;;1.92;1.35;;;9.30;99.90;;;;;;5019180;28;20041;-83
2023/09/14 00:31:51;;;;;;;4.05;1.27;;;9.20;99.90;;;;;;5020275;28;20507;-82
2023/09/14 00:34:17;;;;;;;5.90;1.80;;;9.20;99.90;;;;;;5013322;28;20022;-85
2023/09/14 00:36:42;;;;;;;4.75;1.55;;;9.30;99.90;;;;;;5008020;28;20014;-83
2023/09/14 00:39:11;;;;;;;5.88;1.85;;;9.20;99.90;;;;;;5009940;28;20084;-81
2023/09/14 00:41:37;;;;;;;2.00;1.45;;;9.20;99.90;;;;;;5018061;28;20033;-84
2023/09/14 00:44:02;;;;;;;1.45;1.35;;;9.20;99.90;;;;;;5005693;28;20445;-84
2023/09/14 00:46:29;;;;;;;7.68;2.05;;;9.20;99.90;;;;;;5005852;28;20018;-83
2023/09/14 00:49:01;;;;;;;2.13;1.55;;;9.20;99.90;;;;;;5003246;28;20021;-82
2023/09/14 00:51:30;;;;;;;4.32;1.65;;;9.10;99.90;;;;;;5002415;28;20024;-82
2023/09/14 00:53:56;;;;;;;3.35;1.27;;;9.10;99.90;;;;;;5021420;28;20425;-82
2023/09/14 00:56:23;;;;;;;2.10;1.20;;;9.10;99.90;;;;;;5015791;28;20049;-82
2023/09/14 00:58:48;;;;;;;3.13;1.75;;;9.10;99.90;;;;;;5024520;28;20041;-83
2023/09/14 01:01:14;;;;;;;5.13;1.67;;;9.00;99.90;;;;;;5017350;28;20502;-83
2023/09/14 01:03:40;;;;;;;2.85;1.48;;;9.10;99.90;;;;;;5007106;28;20033;-82
2023/09/14 01:06:06;;;;;;;1.60;1.00;;;9.00;99.90;;;;;;5003442;28;20015;-82
2023/09/14 01:08:32;;;;;;;2.60;1.50;;;9.00;99.90;;;;;;5012175;28;20033;-82
2023/09/14 01:10:58;;;;;;;1.90;1.08;;;9.00;99.90;;;;;;5015869;28;20017;-84
2023/09/14 01:13:46;;;;;;;2.20;1.20;;;9.00;99.90;;;;;;5008533;28;20100;-82
2023/09/14 01:16:19;;;;;;;2.75;1.45;;;9.00;99.90;;;;;;5033976;28;20026;-84
2023/09/14 01:18:57;;;;;;;3.28;1.10;;;9.00;99.90;;;;;;5001630;28;20040;-82
2023/09/14 01:21:50;;;;;;;1.85;1.25;;;9.00;99.90;;;;;;5017129;28;20041;-83
2023/09/14 01:24:51;;;;;;;4.60;1.52;;;9.00;99.90;;;;;;5002389;28;20086;-82
2023/09/14 01:27:17;;;;;;;5.72;1.33;;;8.90;99.90;;;;;;5008272;28;20035;-82
2023/09/14 01:29:43;;;;;;;4.18;1.15;;;8.90;99.90;;;;;;5015887;28;20094;-85
2023/09/14 01:32:09;;;;;;;2.00;0.93;;;8.90;99.90;;;;;;5031412;28;20045;-81
2023/09/14 01:34:35;;;;;;;1.25;1.13;;;8.90;99.90;;;;;;5024989;28;20385;-81
2023/09/14 01:37:04;;;;;;;2.83;1.55;;;8.90;99.90;;;;;;5008756;28;20017;-82
2023/09/14 01:39:31;;;;;;;1.95;1.20;;;8.90;99.90;;;;;;5010016;28;20014;-83
2023/09/14 01:41:57;;;;;;;2.08;1.30;;;8.80;99.90;;;;;;5008374;28;20105;-83
2023/09/14 01:44:25;;;;;;;1.88;1.42;;;8.80;99.90;;;;;;5015731;28;20026;-84
2023/09/14 01:46:51;;;;;;;3.53;1.77;;;8.80;99.90;;;;;;5008194;28;20018;-81
2023/09/14 01:49:16;;;;;;;1.65;1.35;;;8.80;99.90;;;;;;5009164;28;20378;-83
2023/09/14 01:51:42;;;;;;;1.23;1.08;;;8.80;99.90;;;;;;5008370;28;20022;-84
2023/09/14 01:54:07;;;;;;;4.03;1.60;;;8.80;99.90;;;;;;5010678;28;20048;-83
2023/09/14 01:56:33;;;;;;;3.38;1.23;;;8.80;99.90;;;;;;5033539;28;20231;-83
2023/09/14 01:58:58;;;;;;;5.45;1.80;;;8.80;99.90;;;;;;5025164;28;20022;-84
2023/09/14 02:01:24;;;;;;;5.00;1.40;;;8.70;99.90;;;;;;5023862;28;20079;-83
2023/09/14 02:03:49;;;;;;;6.75;1.50;;;8.70;99.90;;;;;;5003220;28;20030;-83
2023/09/14 02:06:15;;;;;;;3.58;1.25;;;8.70;99.90;;;;;;5011513;28;20024;-83
2023/09/14 02:08:40;;;;;;;2.33;0.95;;;8.70;99.90;;;;;;5005998;28;20018;-81
2023/09/14 02:11:06;;;;;;;1.35;1.10;;;8.70;99.90;;;;;;5016715;28;21345;-85
2023/09/14 02:13:31;;;;;;;5.70;1.13;;;8.70;99.90;;;;;;5029393;28;20141;-85
2023/09/14 02:15:57;;;;;;;3.65;1.27;;;8.70;99.90;;;;;;5012958;28;20081;-83
2023/09/14 02:18:22;;;;;;;1.33;1.05;;;8.60;99.90;;;;;;5024038;28;20527;-82
2023/09/14 02:20:48;;;;;;;1.63;1.25;;;8.60;99.90;;;;;;5013258;28;20034;-84
2023/09/14 02:23:16;;;;;;;2.13;1.25;;;8.60;99.90;;;;;;5023307;28;20025;-84
2023/09/14 02:25:44;;;;;;;3.38;1.45;;;8.60;99.90;;;;;;5014854;28;20025;-83
2023/09/14 02:28:10;;;;;;;4.30;1.58;;;8.60;99.90;;;;;;5001754;28;20018;-83
2023/09/14 02:30:39;;;;;;;1.48;1.25;;;8.50;99.90;;;;;;5014330;28;20026;-84
2023/09/14 02:33:07;;;;;;;4.63;1.38;;;8.50;99.90;;;;;;5030493;28;20041;-82
2023/09/14 02:35:33;;;;;;;3.22;1.45;;;8.60;99.90;;;;;;5023908;28;20041;-84
2023/09/14 02:37:58;;;;;;;3.58;1.90;;;8.50;99.90;;;;;;5008137;28;20308;-84
2023/09/14 02:40:24;;;;;;;1.95;1.25;;;8.50;99.90;;;;;;5006736;28;20109;-84
2023/09/14 02:42:50;;;;;;;1.80;1.10;;;8.40;99.90;;;;;;5004105;28;20067;-84
2023/09/14 02:45:16;;;;;;;2.78;1.40;;;8.40;99.90;;;;;;5002285;28;20045;-83
2023/09/14 02:47:41;;;;;;;3.63;1.63;;;8.40;99.90;;;;;;5016425;28;20065;-82
2023/09/14 02:50:07;;;;;;;8.20;1.88;;;8.40;99.90;;;;;;5003081;28;20029;-82
2023/09/14 02:52:33;;;;;;;2.60;1.50;;;8.40;99.90;;;;;;4998470;28;20026;-84
2023/09/14 02:54:59;;;;;;;2.35;1.52;;;8.30;99.90;;;;;;5006951;28;20026;-83
2023/09/14 02:57:25;;;;;;;2.80;1.48;;;8.30;99.90;;;;;;5010299;28;20473;-84
2023/09/14 02:59:54;;;;;;;3.05;1.48;;;8.30;99.90;;;;;;5009156;28;20032;-82
2023/09/14 03:02:21;;;;;;;2.35;1.10;;;8.30;99.90;;;;;;5012631;28;20022;-83
2023/09/14 03:04:47;;;;;;;1.88;1.05;;;8.30;99.90;;;;;;5006971;28;20069;-81
2023/09/14 03:07:14;;;;;;;5.78;1.67;;;8.20;99.90;;;;;;4999959;28;20296;-83
2023/09/14 03:09:39;;;;;;;2.72;1.38;;;8.20;99.90;;;;;;4999750;28;20038;-83
2023/09/14 03:12:05;;;;;;;2.08;1.38;;;8.20;99.90;;;;;;5008035;28;20018;-82
2023/09/14 03:14:31;;;;;;;3.15;1.20;;;8.20;99.90;;;;;;5009486;28;20453;-83
2023/09/14 03:16:57;;;;;;;2.10;1.27;;;8.20;99.90;;;;;;5017369;28;20027;-82
2023/09/14 03:19:23;;;;;;;2.17;1.50;;;8.10;99.90;;;;;;5010532;28;20014;-84
2023/09/14 03:21:49;;;;;;;2.75;1.58;;;8.10;99.90;;;;;;5006298;28;20048;-84
2023/09/14 03:24:14;;;;;;;3.70;1.52;;;8.10;99.90;;;;;;5011975;28;20033;-83
2023/09/14 03:26:40;;;;;;;1.67;1.42;;;8.10;99.90;;;;;;5021182;28;20033;-82
2023/09/14 03:29:05;;;;;;;3.25;1.42;;;8.10;99.90;;;;;;5012608;28;20378;-82
2023/09/14 03:31:31;;;;;;;1.50;0.93;;;8.10;99.90;;;;;;5016657;28;20030;-82
2023/09/14 03:33:56;;;;;;;2.35;1.40;;;8.10;99.90;;;;;;5002593;28;20029;-81
2023/09/14 03:36:22;;;;;;;2.97;1.75;;;8.10;99.90;;;;;;5015945;28;20029;-82
2023/09/14 03:38:48;;;;;;;3.97;1.65;;;8.10;99.90;;;;;;5010344;28;20042;-82
2023/09/14 03:41:13;;;;;;;2.58;1.23;;;8.00;99.90;;;;;;5008644;28;20033;-83
2023/09/14 03:43:40;;;;;;;3.67;1.48;;;8.00;99.90;;;;;;5009141;28;20030;-83
2023/09/14 03:46:06;;;;;;;1.23;1.10;;;7.90;99.90;;;;;;5012350;28;20045;-82
2023/09/14 03:48:31;;;;;;;2.50;1.13;;;7.90;99.90;;;;;;5009192;28;20470;-84
2023/09/14 03:50:59;;;;;;;1.92;1.55;;;7.90;99.90;;;;;;5010424;28;20041;-82
2023/09/14 03:53:28;;;;;;;2.13;1.17;;;7.90;99.90;;;;;;5011644;28;20021;-83
2023/09/14 03:55:54;;;;;;;5.85;1.73;;;7.90;99.90;;;;;;5003851;28;20026;-83
2023/09/14 03:58:20;;;;;;;2.95;1.70;;;7.90;99.90;;;;;;5003433;28;20054;-82
2023/09/14 04:00:45;;;;;;;2.65;1.20;;;7.90;99.90;;;;;;5006681;28;20080;-81
2023/09/14 04:03:11;;;;;;;3.97;2.13;;;7.90;99.90;;;;;;4996682;28;20128;-82
2023/09/14 04:05:37;;;;;;;4.38;1.92;;;7.90;99.90;;;;;;5010902;28;20030;-83
2023/09/14 04:08:02;;;;;;;4.45;1.70;;;7.80;99.90;;;;;;5016153;28;20075;-82
2023/09/14 04:10:28;;;;;;;2.08;1.48;;;7.80;99.90;;;;;;5012158;28;20044;-84
2023/09/14 04:13:17;;;;;;;1.50;1.23;;;7.80;99.90;;;;;;5010180;28;20080;-82
2023/09/14 04:15:43;;;;;;;2.17;0.95;;;7.80;99.90;;;;;;5000287;28;20018;-83
2023/09/14 04:18:08;;;;;;;3.63;1.65;;;7.80;99.90;;;;;;5004084;28;20033;-82
2023/09/14 04:20:34;;;;;;;2.95;1.27;;;7.70;99.90;;;;;;5006154;28;20073;-84
2023/09/14 04:22:59;;;;;;;1.85;1.50;;;7.70;99.90;;;;;;5012029;28;20032;-82
2023/09/14 04:25:25;;;;;;;2.85;1.58;;;7.70;99.90;;;;;;5007368;28;20017;-84
2023/09/14 04:27:50;;;;;;;2.88;1.27;;;7.70;99.90;;;;;;5003728;28;20018;-82
2023/09/14 04:30:16;;;;;;;4.10;1.85;;;7.60;99.90;;;;;;5004854;28;20097;-82
2023/09/14 04:32:41;;;;;;;2.13;1.80;;;7.60;99.90;;;;;;5015878;28;20680;-82
2023/09/14 04:35:08;;;;;;;3.75;1.40;;;7.60;99.90;;;;;;5002191;28;20020;-81
2023/09/14 04:37:33;;;;;;;1.67;1.33;;;7.60;99.90;;;;;;5004810;28;20082;-85
2023/09/14 04:39:59;;;;;;;5.20;1.63;;;7.50;99.90;;;;;;5009293;28;20114;-83
2023/09/14 04:42:24;;;;;;;2.20;1.58;;;7.50;99.90;;;;;;4997437;28;20027;-80
2023/09/14 04:44:53;;;;;;;2.17;1.70;;;7.50;99.90;;;;;;4996739;28;20022;-83
2023/09/14 04:47:18;;;;;;;1.60;1.50;;;7.50;99.90;;;;;;5005806;28;20064;-83
2023/09/14 04:49:44;;;;;;;2.50;1.65;;;7.50;99.90;;;;;;5012813;28;20014;-82
2023/09/14 04:52:11;;;;;;;2.50;1.33;;;7.40;99.90;;;;;;5000336;28;20079;-81
2023/09/14 04:54:36;;;;;;;1.55;1.30;;;7.40;99.90;;;;;;5003310;28;20045;-84
2023/09/14 04:57:03;;;;;;;1.48;1.17;;;7.40;99.90;;;;;;5005330;28;20006;-81
2023/09/14 04:59:29;;;;;;;2.20;1.50;;;7.40;99.90;;;;;;5002988;28;20117;-81
2023/09/14 05:01:54;;;;;;;1.40;1.13;;;7.40;99.90;;;;;;5012791;28;20105;-82
2023/09/14 05:04:20;;;;;;;2.33;1.48;;;7.40;99.90;;;;;;5022369;28;20555;-82
2023/09/14 05:06:46;;;;;;;2.55;1.77;;;7.40;99.90;;;;;;5016481;28;20038;-84
2023/09/14 05:09:11;;;;;;;2.45;1.65;;;7.40;99.90;;;;;;5026601;28;20101;-86
2023/09/14 05:11:37;;;;;;;2.33;1.73;;;7.40;99.90;;;;;;5025067;28;20022;-85
2023/09/14 05:14:03;;;;;;;2.05;1.40;;;7.40;99.90;;;;;;5011547;28;20033;-82
2023/09/14 05:16:28;;;;;;;4.25;1.60;;;7.40;99.90;;;;;;5012337;28;20057;-85
2023/09/14 05:18:54;;;;;;;2.35;1.60;;;7.40;99.90;;;;;;5011040;28;20109;-84
2023/09/14 05:21:19;;;;;;;2.33;1.30;;;7.40;99.90;;;;;;5016185;28;20033;-83
2023/09/14 05:23:45;;;;;;;2.60;1.40;;;7.40;99.90;;;;;;5019642;28;20134;-82
2023/09/14 05:26:10;;;;;;;1.70;1.08;;;7.40;99.90;;;;;;5011230;28;20251;-82
2023/09/14 05:28:36;;;;;;;3.80;1.30;;;7.40;99.90;;;;;;5012788;28;20018;-83
2023/09/14 05:31:02;;;;;;;4.80;1.48;;;7.40;99.90;;;;;;5020691;28;20017;-84
2023/09/14 05:33:27;;;;;;;6.15;1.58;;;7.50;99.90;;;;;;5026071;28;20024;-81
2023/09/14 05:35:53;;;;;;;1.45;1.23;;;7.50;99.90;;;;;;5006403;28;20037;-81
2023/09/14 05:38:19;;;;;;;4.10;1.63;;;7.50;99.90;;;;;;5020789;28;20025;-82
2023/09/14 05:40:46;;;;;;;2.53;1.20;;;7.50;99.90;;;;;;5001100;28;20040;-82
2023/09/14 05:43:11;;;;;;;2.25;1.90;;;7.50;99.90;;;;;;5010445;28;20026;-81
2023/09/14 05:45:37;;;;;;;4.07;1.98;;;7.60;99.90;;;;;;5012870;28;20041;-82
2023/09/14 05:48:04;;;;;;;3.65;1.92;;;7.60;99.90;;;;;;5010893;28;20469;-83
2023/09/14 05:50:30;;;;;;;3.15;1.70;;;7.60;99.90;;;;;;5003245;28;20029;-82
2023/09/14 05:52:56;;;;;;;2.88;1.60;;;7.60;99.90;;;;;;5008748;28;20045;-82
2023/09/14 05:55:21;;;;;;;2.17;1.90;;;7.70;99.90;;;;;;5008875;28;20354;-81
2023/09/14 05:57:47;;;;;;;2.40;1.50;;;7.70;99.90;;;;;;5006256;28;20119;-81
2023/09/14 06:00:13;;;;;;;2.17;1.45;;;7.70;99.90;;;;;;5004436;28;20018;-83
2023/09/14 06:02:42;;;;;;;2.40;1.75;;;7.70;99.90;;;;;;5010326;28;20025;-82
2023/09/14 06:05:08;;;;;;;1.83;1.45;;;7.70;99.90;;;;;;4997287;28;20030;-82
2023/09/14 06:07:34;;;;;;;2.45;1.70;;;7.80;99.90;;;;;;5007103;28;20042;-83
2023/09/14 06:10:00;;;;;;;2.70;1.23;;;7.80;99.90;;;;;;5001327;28;20025;-84
2023/09/14 06:12:25;;;;;;;3.72;1.42;;;7.80;99.90;;;;;;5011110;28;20026;-82
2023/09/14 06:14:51;;;;;;;2.63;1.40;;;7.80;99.90;;;;;;4998532;28;20061;-82
2023/09/14 06:17:16;;;;;;;2.35;1.50;;;7.90;99.90;;;;;;5004593;28;20022;-85
2023/09/14 06:19:42;;;;;;;3.42;1.60;;;7.90;99.90;;;;;;5008009;28;20088;-84
2023/09/14 06:22:08;;;;;;;2.25;1.50;;;8.00;99.90;;;;;;5001514;28;20022;-81
2023/09/14 06:24:34;;;;;;;2.85;1.50;;;8.00;99.90;;;;;;5003195;28;20098;-83
2023/09/14 06:26:59;;;;;;;4.05;1.52;;;8.10;99.90;;;;;;5010071;28;20560;-82
2023/09/14 06:29:25;;;;;;;1.38;1.17;;;8.10;99.90;;;;;;5008046;28;20485;-82
2023/09/14 06:31:51;;;;;;;1.98;1.40;;;8.10;99.90;;;;;;5013272;28;20068;-82
2023/09/14 06:34:16;;;;;;;3.13;1.27;;;8.20;99.90;;;;;;5008941;28;20109;-83
2023/09/14 06:36:42;;;;;;;3.05;1.70;;;8.30;99.90;;;;;;5006063;28;20059;-86
2023/09/14 06:39:07;;;;;;;2.25;1.23;;;8.30;99.90;;;;;;5010375;28;20369;-82
2023/09/14 06:41:33;;;;;;;2.28;1.30;;;8.30;99.90;;;;;;5011087;28;20466;-84
2023/09/14 06:43:58;;;;;;;3.25;1.60;;;8.40;99.90;;;;;;5008816;28;20101;-83
2023/09/14 06:46:24;;;;;;;5.07;2.25;;;8.40;99.90;;;;;;5004745;28;20010;-85
2023/09/14 06:48:49;;;;;;;3.80;1.40;;;8.50;99.90;;;;;;5006606;28;20029;-88
2023/09/14 06:51:15;;;;;;;3.65;1.30;;;8.50;99.90;;;;;;5008687;28;20060;-83
2023/09/14 06:53:40;;;;;;;3.80;1.67;;;8.60;99.90;;;;;;5001006;28;20555;-83
2023/09/14 06:56:07;;;;;;;2.03;1.20;;;8.70;99.90;;;;;;5010805;28;20018;-83
2023/09/14 06:58:33;;;;;;;4.18;1.30;;;8.80;99.90;;;;;;5008564;28;20074;-83
2023/09/14 07:01:03;;;;;;;4.13;1.15;;;8.80;99.90;;;;;;5009692;28;20108;-81
2023/09/14 07:03:29;;;;;;;2.25;1.65;;;8.90;99.90;;;;;;5005794;28;20018;-84
2023/09/14 07:05:54;;;;;;;4.60;1.77;;;9.00;99.90;;;;;;5004089;28;20018;-83
2023/09/14 07:08:20;;;;;;;5.97;1.73;;;9.10;99.90;;;;;;5011692;28;20067;-83
2023/09/14 07:10:45;;;;;;;2.97;1.63;;;9.20;99.90;;;;;;5005242;28;20010;-83
2023/09/14 07:13:11;;;;;;;2.70;1.65;;;9.30;99.90;;;;;;5011951;28;20591;-83
2023/09/14 07:15:36;;;;;;;7.03;2.50;;;9.50;99.90;;;;;;5011551;28;20025;-83
2023/09/14 07:18:02;;;;;;;3.72;2.05;;;9.60;99.90;;;;;;5009217;28;20022;-85
2023/09/14 07:20:27;;;;;;;2.20;1.65;;;9.80;99.90;;;;;;5014312;28;20025;-83
2023/09/14 07:22:54;;;;;;;4.95;1.30;;;10.00;99.90;;;;;;5001821;28;20029;-84
2023/09/14 07:25:19;;;;;;;3.75;1.38;;;10.20;99.90;;;;;;5002579;28;20015;-84
2023/09/14 07:27:45;;;;;;;2.25;1.20;;;10.40;99.90;;;;;;5001458;28;20541;-82
2023/09/14 07:30:13;;;;;;;0.85;0.80;;;10.60;99.90;;;;;;5008436;28;20029;-82
2023/09/14 07:32:39;;;;;;;2.88;1.63;;;10.80;99.90;;;;;;5013401;28;20014;-84
2023/09/14 07:35:06;;;;;;;5.05;1.83;;;11.00;99.90;;;;;;5023860;28;20028;-84
2023/09/14 07:37:31;;;;;;;2.85;1.33;;;11.20;99.90;;;;;;5017124;28;20490;-85
2023/09/14 07:39:57;;;;;;;3.25;1.42;;;11.40;99.90;;;;;;5007520;28;20030;-84
2023/09/14 07:42:22;;;;;;;5.00;1.20;;;11.50;99.90;;;;;;5019910;28;20449;-82
2023/09/14 07:44:48;;;;;;;2.80;1.40;;;11.70;99.90;;;;;;5011647;28;20426;-82
2023/09/14 07:47:13;;;;;;;4.43;1.30;;;11.90;99.90;;;;;;5006489;28;20026;-83
2023/09/14 07:49:39;;;;;;;2.53;1.30;;;12.00;99.90;;;;;;5014113;28;20019;-84
2023/09/14 07:52:05;;;;;;;2.28;1.02;;;12.10;99.90;;;;;;5004406;28;20470;-84
2023/09/14 07:54:34;;;;;;;3.17;1.40;;;12.30;99.90;;;;;;4995565;28;20030;-83
2023/09/14 07:57:00;;;;;;;2.30;1.10;;;12.40;99.90;;;;;;5005844;28;20022;-84
2023/09/14 07:59:26;;;;;;;1.52;1.10;;;12.60;99.90;;;;;;5001242;28;20077;-83
2023/09/14 08:01:52;;;;;;;3.17;1.45;;;12.70;99.90;;;;;;4998537;28;20056;-84
2023/09/14 08:04:17;;;;;;;3.42;1.23;;;12.80;99.90;;;;;;5007410;28;20057;-84
2023/09/14 08:06:43;;;;;;;1.75;1.05;;;13.00;99.90;;;;;;5021420;28;20083;-85
2023/09/14 08:09:09;;;;;;;0.77;0.77;;;13.10;99.90;;;;;;5014587;28;20082;-85
2023/09/14 08:11:36;;;;;;;2.10;1.17;;;13.20;99.90;;;;;;5007259;28;20014;-84
2023/09/14 08:14:02;;;;;;;2.75;1.30;;;13.30;99.90;;;;;;5012249;28;20177;-85
2023/09/14 08:16:32;;;;;;;3.17;1.40;;;13.40;99.90;;;;;;5008837;28;20042;-85
2023/09/14 08:18:58;;;;;;;2.65;1.13;;;13.50;99.90;;;;;;5004754;28;20106;-88
2023/09/14 08:21:23;;;;;;;2.45;0.95;;;13.60;99.90;;;;;;5003553;28;20388;-84
2023/09/14 08:23:49;;;;;;;0.70;0.70;;;13.70;99.90;;;;;;5007342;28;20041;-83
2023/09/14 08:26:14;;;;;;;4.03;0.75;;;13.70;99.90;;;;;;5003670;28;20026;-83
2023/09/14 08:28:40;;;;;;;2.38;1.10;;;13.80;99.90;;;;;;5015452;28;20026;-83
2023/09/14 08:31:06;;;;;;;1.50;0.63;;;13.90;99.90;;;;;;5009291;28;20028;-85
2023/09/14 08:33:32;;;;;;;2.63;0.70;;;14.00;99.90;;;;;;5007951;28;20045;-85
2023/09/14 08:35:58;;;;;;;1.17;0.70;;;14.00;99.90;;;;;;5001053;28;20080;-84
2023/09/14 08:38:25;;;;;;;1.85;0.80;;;14.10;99.90;;;;;;5007667;28;20125;-83
2023/09/14 08:40:53;;;;;;;3.03;0.50;;;14.10;99.90;;;;;;5008535;28;20093;-85
2023/09/14 08:43:19;;;;;;;3.05;1.10;;;14.10;99.90;;;;;;5011400;28;20037;-84
2023/09/14 08:45:58;;;;;;;1.63;0.90;;;14.20;99.90;;;;;;5015968;28;20036;-84
2023/09/14 08:48:28;;;;;;;1.23;0.65;;;14.20;99.90;;;;;;5020142;28;20030;-85
2023/09/14 08:50:55;;;;;;;1.17;0.73;;;14.20;99.90;;;;;;5020554;28;20540;-83
2023/09/14 08:53:23;;;;;;;0.75;0.50;;;14.30;99.90;;;;;;5022931;28;20033;-84
2023/09/14 08:55:48;;;;;;;3.47;0.60;;;14.30;99.90;;;;;;5001704;28;20073;-85
2023/09/14 08:58:15;;;;;;;2.90;0.77;;;14.40;99.90;;;;;;5013014;28;20057;-82
2023/09/14 09:00:42;;;;;;;2.47;0.63;;;14.50;99.90;;;;;;5010305;28;20579;-83
2023/09/14 09:03:07;;;;;;;1.98;0.60;;;14.50;99.90;;;;;;5009328;28;20026;-82
2023/09/14 09:05:33;;;;;;;3.25;0.85;;;14.50;99.90;;;;;;5016266;28;20026;-87
2023/09/14 09:07:59;;;;;;;2.15;0.70;;;14.60;99.90;;;;;;5016165;28;20026;-83
2023/09/14 09:10:30;;;;;;;4.15;0.52;;;14.60;99.90;;;;;;5016560;28;20014;-84
2023/09/14 09:13:01;;;;;;;1.48;0.70;;;14.70;99.90;;;;;;5007598;28;20033;-85
2023/09/14 09:15:27;;;;;;;1.95;1.00;;;14.90;99.90;;;;;;5018047;28;20026;-82
2023/09/14 09:18:07;;;;;;;2.50;0.57;;;14.90;99.90;;;;;;5020499;28;20041;-85
2023/09/14 09:20:34;;;;;;;1.75;0.60;;;15.00;99.90;;;;;;5003317;28;20073;-84
2023/09/14 09:23:00;;;;;;;4.50;0.80;;;15.00;99.90;;;;;;5017752;28;20025;-85
2023/09/14 09:25:29;;;;;;;2.30;0.60;;;15.00;99.90;;;;;;5018323;28;20040;-84
2023/09/14 09:27:58;;;;;;;0.52;0.32;;;15.10;99.90;;;;;;5010144;28;20026;-85
2023/09/14 09:30:35;;;;;;;2.25;0.50;;;15.10;99.90;;;;;;5017246;28;20032;-84
2023/09/14 09:33:02;;;;;;;1.23;0.75;;;15.20;99.90;;;;;;5011048;28;20036;-82
2023/09/14 09:35:29;;;;;;;1.92;0.60;;;15.20;99.90;;;;;;5013471;28;20022;-83
2023/09/14 09:37:57;;;;;;;2.83;0.52;;;15.20;99.90;;;;;;5028179;28;20113;-85
2023/09/14 09:40:27;;;;;;;1.92;0.60;;;15.30;99.90;;;;;;5006320;28;20031;-80
2023/09/14 09:42:54;;;;;;;3.95;0.63;;;15.30;99.90;;;;;;5012225;28;20044;-82
2023/09/14 09:45:23;;;;;;;0.47;0.30;;;15.40;99.90;;;;;;5016545;28;20025;-84
2023/09/14 09:47:49;;;;;;;3.22;0.63;;;15.40;99.90;;;;;;5007811;28;20037;-84
2023/09/14 09:50:15;;;;;;;2.53;0.60;;;15.50;99.90;;;;;;5017210;28;20482;-83
2023/09/14 09:52:43;;;;;;;2.30;0.90;;;15.50;99.90;;;;;;5005507;28;20080;-83
2023/09/14 09:55:16;;;;;;;2.83;1.08;;;15.50;99.90;;;;;;5015033;28;20561;-86
2023/09/14 09:57:57;;;;;;;1.90;0.77;;;15.60;99.90;;;;;;5015004;28;20038;-82
2023/09/14 10:00:28;;;;;;;2.42;0.60;;;15.70;99.90;;;;;;5008774;28;20038;-83
2023/09/14 10:02:54;;;;;;;0.30;0.30;;;15.70;99.90;;;;;;5018235;28;20026;-82
2023/09/14 10:05:32;;;;;;;1.33;0.50;;;15.70;99.90;;;;;;5004317;28;20029;-82
2023/09/14 10:08:00;;;;;;;1.85;0.38;;;15.90;99.90;;;;;;5010820;28;20018;-83
2023/09/14 10:10:31;;;;;;;2.85;0.45;;;15.90;99.90;;;;;;5009739;28;20037;-85
2023/09/14 10:13:00;;;;;;;2.03;0.73;;;16.00;99.90;;;;;;5015168;28;20456;-84
2023/09/14 10:15:27;;;;;;;1.77;0.65;;;16.00;99.90;;;;;;5007354;28;20459;-85
2023/09/14 10:17:57;;;;;;;3.92;0.90;;;16.00;99.90;;;;;;5019521;28;20029;-83
2023/09/14 10:20:27;;;;;;;1.02;0.43;;;16.00;99.90;;;;;;5008806;28;20089;-84
2023/09/14 10:22:53;;;;;;;1.90;0.63;;;16.00;99.90;;;;;;5007234;28;20041;-85
2023/09/14 10:25:21;;;;;;;4.80;0.75;;;16.00;99.90;;;;;;5016002;28;20022;-85
2023/09/14 10:27:46;;;;;;;3.97;0.70;;;16.00;99.90;;;;;;5025230;28;20026;-83
2023/09/14 10:30:20;;;;;;;1.50;0.50;;;16.10;99.90;;;;;;5029757;28;20439;-84
2023/09/14 10:32:52;;;;;;;1.17;0.47;;;16.00;99.90;;;;;;5013432;28;20064;-83
2023/09/14 10:35:18;;;;;;;1.35;0.68;;;16.10;99.90;;;;;;5011027;28;20086;-83
2023/09/14 10:37:45;;;;;;;1.05;0.50;;;16.20;99.90;;;;;;5006424;28;20401;-85
2023/09/14 10:40:12;;;;;;;0.60;0.60;;;16.20;99.90;;;;;;5005703;28;20053;-83
2023/09/14 10:42:40;;;;;;;3.25;0.82;;;16.30;99.90;;;;;;5020703;28;20132;-81
2023/09/14 10:45:06;;;;;;;4.50;0.80;;;16.30;99.90;;;;;;5012294;28;20099;-83
2023/09/14 10:47:37;;;;;;;0.50;0.50;;;16.40;99.90;;;;;;5015521;28;20061;-82
2023/09/14 10:50:06;;;;;;;0.43;0.20;;;16.30;99.90;;;;;;5016220;28;20010;-82
2023/09/14 10:52:33;;;;;;;2.72;0.77;;;16.30;99.90;;;;;;5009692;28;20018;-83
2023/09/14 10:54:59;;;;;;;1.27;0.40;;;16.30;99.90;;;;;;5004419;28;20018;-83
2023/09/14 10:57:29;;;;;;;2.22;0.70;;;16.30;99.90;;;;;;5010226;28;20021;-83
2023/09/14 10:59:58;;;;;;;2.30;0.73;;;16.30;99.90;;;;;;5022949;28;20014;-86
2023/09/14 11:02:39;;;;;;;2.58;0.30;;;16.40;99.90;;;;;;5022624;28;20010;-84
2023/09/14 11:05:25;;;;;;;2.20;0.85;;;16.50;99.90;;;;;;5022676;28;20093;-87
2023/09/14 11:07:57;;;;;;;4.93;0.60;;;16.50;99.90;;;;;;5021457;28;20020;-85
2023/09/14 11:10:23;;;;;;;1.10;0.43;;;16.50;99.90;;;;;;5017154;28;20014;-85
2023/09/14 11:12:49;;;;;;;1.67;0.88;;;16.50;99.90;;;;;;5018110;28;20044;-84
2023/09/14 11:15:22;;;;;;;2.25;0.65;;;16.40;99.90;;;;;;5013268;28;20110;-84
2023/09/14 11:17:52;;;;;;;0.85;0.60;;;16.30;99.90;;;;;;5010367;28;20022;-85
2023/09/14 11:20:24;;;;;;;2.10;0.40;;;16.20;99.90;;;;;;5025915;28;20029;-87
2023/09/14 11:22:52;;;;;;;2.50;0.43;;;16.10;99.90;;;;;;5010803;28;20029;-86
2023/09/14 11:25:32;;;;;;;2.85;0.40;;;16.10;99.90;;;;;;5012449;28;20046;-86
2023/09/14 11:27:58;;;;;;;0.70;0.40;;;16.10;99.90;;;;;;5005073;28;20026;-83
2023/09/14 11:30:24;;;;;;;1.27;0.40;;;16.10;99.90;;;;;;4998248;28;20041;-82
2023/09/14 11:32:54;;;;;;;2.55;0.50;;;16.20;99.90;;;;;;5007831;28;20029;-83
2023/09/14 11:35:39;;;;;;;0.50;0.50;;;16.20;99.90;;;;;;5000823;28;20018;-83
2023/09/14 11:38:18;;;;;;;1.75;0.60;;;16.30;99.90;;;;;;5007672;28;20025;-82
2023/09/14 11:40:44;;;;;;;4.18;0.57;;;16.30;99.90;;;;;;5006368;28;20022;-83
2023/09/14 11:43:25;;;;;;;0.80;0.40;;;16.30;99.90;;;;;;5010080;28;20152;-85
2023/09/14 11:46:04;;;;;;;0.85;0.30;;;16.30;99.90;;;;;;4998788;28;20057;-83
2023/09/14 11:48:33;;;;;;;1.92;0.43;;;16.30;99.90;;;;;;4999236;28;20006;-83
2023/09/14 11:51:02;;;;;;;3.67;0.47;;;16.30;99.90;;;;;;5004832;28;20105;-83
2023/09/14 11:53:31;;;;;;;2.72;0.60;;;16.50;99.90;;;;;;5016176;28;20096;-85
2023/09/14 11:55:57;;;;;;;1.70;0.63;;;16.50;99.90;;;;;;5017931;28;20489;-82
2023/09/14 11:58:23;;;;;;;3.33;0.75;;;16.70;99.90;;;;;;5003018;28;20029;-82
2023/09/14 12:00:51;;;;;;;3.22;0.60;;;16.80;99.90;;;;;;5003082;28;20034;-82
2023/09/14 12:03:17;;;;;;;1.77;0.40;;;16.90;99.90;;;;;;5003881;28;20018;-82
2023/09/14 12:05:43;;;;;;;1.08;0.60;;;16.90;99.90;;;;;;5014098;28;20026;-82
2023/09/14 12:08:16;;;;;;;1.42;0.68;;;17.00;99.90;;;;;;5006531;28;20010;-84
2023/09/14 12:10:43;;;;;;;2.63;0.60;;;17.00;99.90;;;;;;5004219;28;20058;-82
2023/09/14 12:13:14;;;;;;;3.50;0.63;;;17.10;99.90;;;;;;5001195;28;20932;-84
2023/09/14 12:15:45;;;;;;;2.22;0.75;;;17.20;99.90;;;;;;5004159;28;20057;-82
2023/09/14 12:18:12;;;;;;;2.90;1.63;;;17.30;99.90;;;;;;5005235;28;20058;-83
2023/09/14 12:20:42;;;;;;;1.05;0.50;;;17.40;99.90;;;;;;5005872;28;20081;-85
2023/09/14 12:23:09;;;;;;;2.15;0.70;;;17.50;99.90;;;;;;5006556;28;20027;-82
2023/09/14 12:25:41;;;;;;;1.23;0.40;;;17.40;99.90;;;;;;5008975;28;20026;-82
2023/09/14 12:28:10;;;;;;;1.70;0.70;;;17.40;99.90;;;;;;5010231;28;20032;-81
2023/09/14 12:30:37;;;;;;;1.05;0.30;;;17.30;99.90;;;;;;5005443;28;20113;-81
2023/09/14 12:33:04;;;;;;;0.75;0.50;;;17.10;99.90;;;;;;5013380;28;20076;-81
2023/09/14 12:35:30;;;;;;;2.22;0.55;;;17.10;99.90;;;;;;5002621;28;20018;-85
2023/09/14 12:38:03;;;;;;;1.23;0.52;;;17.00;99.90;;;;;;4999748;28;20498;-82
2023/09/14 12:40:33;;;;;;;1.15;0.50;;;16.90;99.90;;;;;;5006193;28;20036;-86
2023/09/14 12:43:02;;;;;;;0.75;0.50;;;16.90;99.90;;;;;;5011404;28;20080;-83
2023/09/14 12:45:28;;;;;;;2.25;0.60;;;16.90;99.90;;;;;;4997600;28;20050;-85
2023/09/14 12:47:53;;;;;;;2.75;0.82;;;17.00;99.90;;;;;;5010301;28;20551;-81
2023/09/14 12:50:19;;;;;;;0.85;0.22;;;17.00;99.90;;;;;;5003072;28;20022;-82
2023/09/14 12:52:49;;;;;;;1.63;0.40;;;17.00;99.90;;;;;;4995695;28;20034;-82